Terminal Aerodrome Forecast
Issued by NWS St Louis, MO

Home | Current Version | Previous Version | Text Only | Print | Product List | Glossary On
Versions: 1 2 3 4 5 6 7 8 9 10 11 12 13 14 15 16 17 18 19 20 21 22 23 24 25 26 27 28 29 30 31 32 33
655
FTUS43 KLSX 270312 AAB
TAFSTL
TAF AMD
KSTL 270312Z 2703/2806 12010KT P6SM OVC120
     FM270800 12007KT P6SM VCTS OVC040CB
      TEMPO 2710/2713 3SM TSRA OVC025CB
     FM271300 11010KT 6SM -SHRA OVC020
     FM271700 14012KT P6SM -SHRA OVC035
     FM271900 17013KT P6SM BKN045=

USA.gov is the U.S. government's official web portal to all federal, state and local government web resources and services.